Terminal Aerodrome Forecast
Issued by NWS

Home | Current Version | Previous Version | Graphics & Text | Print | Product List | Glossary On
Versions: 1 2 3 4 5 6 7 8 9 10 11 12 13 14 15 16 17 18
034
FTUS43 KBIS 080854 AAA
TAFJMS
TAF AMD
KJMS 080854Z 0809/0906 32022G32KT P6SM OVC025
     FM081700 33027G37KT P6SM SCT015
     FM082100 34024G34KT P6SM SCT140
     FM082300 33017KT P6SM BKN200=

USA.gov is the U.S. government's official web portal to all federal, state and local government web resources and services.